Flight Track Log - Related Links

Times and Time Zones

All times are in EDT time to prevent confusion due to time zone crossing. See the N541JD flight status page for this flight to view local times or setup timezone preferences in your user account.

Time Position Orientation Groundspeed Altitude Reporting Facility
EDT Latitude Longitude Course Direction KTS MPH feet Rate Location/Type
Mon 06:59:25 PM 30.0256 -90.0311 161° South 100 115 600  Level Houston Center
Mon 07:00:38 PM 29.9981 -90.0200 161° South 98 113 1,900 873 Climbing Houston Center
Mon 07:01:15 PM 30.0114 -90.0072 40° Northeast 167 192 2,200 764 Climbing Houston Center
Mon 07:01:33 PM 30.0247 -90.0094 352° North 140 161 2,600 1,161 Climbing Houston Center
Mon 07:02:17 PM 30.0458 -90.0117 355° North 139 160 3,400 1,100 Climbing Houston Center
Mon 07:02:33 PM 30.0583 -90.0128 356° North 121 139 3,700 968 Climbing Houston Center
Mon 07:03:19 PM 30.0778 -90.0106 North 125 144 4,400 984 Climbing Houston Center
Mon 07:03:34 PM 30.0872 -90.0019 38° Northeast 112 129 4,700 984 Climbing Houston Center
Mon 07:04:20 PM 30.1061 -89.9922 24° Northeast 120 138 5,400 985 Climbing Houston Center
Mon 07:04:41 PM 30.1200 -89.9836 28° Northeast 113 130 5,800 968 Climbing Houston Center
Mon 07:05:22 PM 30.1403 -89.9717 27° Northeast 119 137 6,400 900 Climbing Houston Center
Mon 07:05:41 PM 30.1489 -89.9681 20° North 113 130 6,700 581 Climbing Houston Center
Mon 07:06:24 PM 30.1686 -89.9556 29° Northeast 116 133 7,000 295 Climbing Houston Center
Mon 07:06:42 PM 30.1797 -89.9500 23° Northeast 129 148 7,000  Level Houston Center
Mon 07:07:26 PM 30.2075 -89.9333 27° Northeast 146 168 7,000  Level Houston Center
Mon 07:07:42 PM 30.2206 -89.9264 25° Northeast 176 203 7,000  Level Houston Center
Mon 07:08:28 PM 30.2511 -89.9089 26° Northeast 168 193 7,000  Level Houston Center
Mon 07:09:29 PM 30.2953 -89.8836 26° Northeast 173 199 7,000  Level Houston Center
Mon 07:09:40 PM 30.3083 -89.8758 27° Northeast 176 203 7,000  Level Houston Center
Mon 07:10:31 PM 30.3403 -89.8581 26° Northeast 174 200 7,000  Level Houston Center
Mon 07:11:33 PM 30.3869 -89.8311 26° Northeast 177 204 7,000  Level Houston Center
Mon 07:12:35 PM 30.4325 -89.8056 26° Northeast 177 204 7,000  Level Houston Center
Mon 07:13:37 PM 30.4767 -89.7797 27° Northeast 177 204 7,000  Level Houston Center
Mon 07:14:39 PM 30.5317 -89.7481 26° Northeast 178 205 7,000  Level Houston Center
Mon 07:15:41 PM 30.5767 -89.7228 26° Northeast 178 205 7,000  Level Houston Center
Mon 07:16:43 PM 30.6236 -89.7028 20° North 178 205 7,000  Level Houston Center
Mon 07:17:45 PM 30.6703 -89.6819 21° North 178 205 7,000  Level Houston Center
Mon 07:18:47 PM 30.7161 -89.6614 21° North 178 205 7,000  Level Houston Center
Mon 07:19:49 PM 30.7625 -89.6403 21° North 178 205 7,000  Level Houston Center
Mon 07:20:50 PM 30.8189 -89.6147 21° North 178 205 7,000  Level Houston Center
Mon 07:21:52 PM 30.8661 -89.5942 20° North 178 205 7,000  Level Houston Center
Mon 07:22:54 PM 30.9131 -89.5736 21° North 178 205 7,000  Level Houston Center
Mon 07:23:56 PM 30.9594 -89.5506 23° Northeast 179 206 7,000  Level Houston Center
Mon 07:24:58 PM 31.0053 -89.5297 21° North 179 206 7,000  Level Houston Center
Mon 07:26:00 PM 31.0519 -89.5086 21° North 179 206 7,000  Level Houston Center
Mon 07:27:02 PM 31.0989 -89.4875 21° North 179 206 7,000  Level Houston Center
Mon 07:28:03 PM 31.1544 -89.4625 21° North 179 206 7,000  Level Houston Center
Mon 07:29:05 PM 31.2011 -89.4408 22° Northeast 179 206 7,000  Level Houston Center
Mon 07:30:07 PM 31.2469 -89.4178 23° Northeast 179 206 7,000  Level Houston Center
Mon 07:31:09 PM 31.2928 -89.3947 23° Northeast 179 206 7,000  Level Houston Center
Mon 07:32:11 PM 31.3386 -89.3725 22° Northeast 179 206 7,000  Level Houston Center
Mon 07:33:13 PM 31.3850 -89.3522 20° North 179 206 7,000  Level Houston Center
Mon 07:34:15 PM 31.4292 -89.3289 24° Northeast 178 205 7,000  Level Houston Center
Mon 07:35:16 PM 31.4736 -89.2853 40° Northeast 176 203 7,000  Level Houston Center
Mon 07:36:18 PM 31.5133 -89.2514 36° Northeast 176 203 7,000 48 Level Houston Center
Mon 07:37:20 PM 31.5511 -89.2153 39° Northeast 176 203 7,100 48 Climbing Houston Center
Mon 07:38:22 PM 31.5903 -89.1806 37° Northeast 176 203 7,100  Level Houston Center
Mon 07:39:24 PM 31.6286 -89.1444 39° Northeast 176 203 7,100  Level Houston Center
Mon 07:40:14 PM 31.6597 -89.1161 38° Northeast 175 201 7,100 -54 Level Memphis Center
Mon 07:41:16 PM 31.7053 -89.0733 39° Northeast 175 201 7,000 -49 Descending Memphis Center
Mon 07:42:17 PM 31.7447 -89.0389 37° Northeast 175 201 7,000  Level Memphis Center
Mon 07:43:19 PM 31.7831 -89.0019 39° Northeast 175 201 7,000  Level Memphis Center
Mon 07:44:21 PM 31.8214 -88.9672 38° Northeast 175 201 7,000  Level Memphis Center
Mon 07:45:23 PM 31.8600 -88.9308 39° Northeast 175 201 7,000  Level Memphis Center
Mon 07:46:25 PM 31.9006 -88.8936 38° Northeast 177 204 7,000  Level Memphis Center
Mon 07:47:27 PM 31.9472 -88.8517 37° Northeast 178 205 7,000  Level Memphis Center
Mon 07:48:29 PM 31.9850 -88.8156 39° Northeast 178 205 7,000  Level Memphis Center
Mon 07:49:29 PM 32.0206 -88.7700 47° Northeast 178 205 7,000  Level Memphis Center
Mon 07:50:32 PM 32.0631 -88.7428 28° Northeast 178 205 7,000  Level Memphis Center
Mon 07:51:34 PM 32.1019 -88.7069 38° Northeast 178 205 7,000  Level Memphis Center
Mon 07:52:36 PM 32.1428 -88.6697 38° Northeast 179 206 7,000  Level Memphis Center
Mon 07:53:29 PM 32.1833 -88.6211 45° Northeast 187 215 7,000  Level Memphis Center
Mon 07:54:40 PM 32.2283 -88.5889 31° Northeast 179 206 7,000  Level Memphis Center
Mon 07:55:41 PM 32.2667 -88.5519 39° Northeast 179 206 7,000 49 Level Memphis Center
Mon 07:56:43 PM 32.3075 -88.5147 38° Northeast 179 206 7,100  Climbing Memphis Center
Mon 07:57:30 PM 32.3439 -88.4719 45° Northeast 184 212 7,000 -97 Descending Memphis Center
Mon 07:57:45 PM 32.3517 -88.4728 355° North 181 208 7,000  Level Memphis Center
Mon 07:58:47 PM 32.3881 -88.4283 46° Northeast 187 215 7,000 48 Level Memphis Center
Mon 07:59:49 PM 32.4228 -88.3800 50° Northeast 187 215 7,100  Climbing Memphis Center
Mon 08:00:51 PM 32.4572 -88.3347 48° Northeast 186 214 7,000  Descending Memphis Center
Mon 08:01:31 PM 32.4847 -88.2936 52° Northeast 183 211 7,100 98 Climbing Memphis Center
Mon 08:01:52 PM 32.4914 -88.2900 25° Northeast 186 214 7,100 -72 Level Memphis Center
Mon 08:02:54 PM 32.5236 -88.2442 50° Northeast 186 214 7,000  Descending Memphis Center
Mon 08:03:56 PM 32.5617 -88.1928 49° Northeast 185 213 7,100 97 Climbing Memphis Center
Mon 08:04:58 PM 32.5958 -88.1456 49° Northeast 184 212 7,200  Climbing Memphis Center
Mon 08:05:31 PM 32.6250 -88.1144 42° Northeast 187 215 7,100  Descending Memphis Center
Mon 08:06:01 PM 32.6283 -88.1008 74° East 184 212 7,200 66 Climbing Memphis Center
Mon 08:07:02 PM 32.6600 -88.0567 50° Northeast 183 211 7,200 -49 Level Memphis Center
Mon 08:08:04 PM 32.6925 -88.0125 49° Northeast 181 208 7,100 -49 Descending Memphis Center
Mon 08:09:05 PM 32.7325 -87.9567 50° Northeast 181 208 7,100  Level Memphis Center
Mon 08:10:07 PM 32.7653 -87.9119 49° Northeast 181 208 7,100  Level Memphis Center
Mon 08:11:09 PM 32.7956 -87.8714 48° Northeast 182 209 7,100  Level Memphis Center
Mon 08:12:11 PM 32.8292 -87.8250 49° Northeast 182 209 7,100  Level Memphis Center
Mon 08:13:48 PM 32.8869 -87.7419 50° Northeast 167 192 7,100  Level Atlanta Center
Mon 08:14:30 PM 32.9108 -87.7131 45° Northeast 184 212 7,100  Level Atlanta Center
Mon 08:14:48 PM 32.9175 -87.6986 61° Northeast 172 198 7,100  Level Atlanta Center
Mon 08:15:48 PM 32.9503 -87.6506 51° Northeast 177 204 7,100  Level Atlanta Center
Mon 08:16:18 PM 32.9681 -87.6314 42° Northeast 182 209 7,100  Level Memphis Center
Mon 08:17:20 PM 33.0006 -87.5853 50° Northeast 182 209 7,100  Level Memphis Center
Mon 08:18:21 PM 33.0353 -87.5383 49° Northeast 183 211 7,100  Level Memphis Center
Mon 08:19:23 PM 33.0747 -87.4811 51° Northeast 183 211 7,100 -33 Level Memphis Center
Mon 08:21:22 PM 33.1392 -87.3878 50° Northeast 188 216 7,000 -83 Descending Atlanta Center
Mon 08:21:48 PM 33.1567 -87.3661 46° Northeast 182 209 6,900 -393 Descending Atlanta Center
Mon 08:22:23 PM 33.1761 -87.3422 46° Northeast 193 222 6,600 -500 Descending Atlanta Center
Mon 08:22:48 PM 33.1914 -87.3153 56° Northeast 182 209 6,400 -500 Descending Atlanta Center
Mon 08:23:23 PM 33.2108 -87.2914 46° Northeast 195 224 6,100 -500 Descending Atlanta Center
Mon 08:23:48 PM 33.2261 -87.2644 56° Northeast 188 216 5,900 -590 Descending Atlanta Center
Mon 08:24:24 PM 33.2414 -87.2403 53° Northeast 197 227 5,500 -680 Descending Atlanta Center
Mon 08:25:25 PM 33.2533 -87.1811 76° East 192 221 4,800 -843 Descending Atlanta Center
Mon 08:26:25 PM 33.2653 -87.1169 77° East 189 217 3,800 -744 Descending Atlanta Center
Mon 08:27:26 PM 33.2750 -87.0603 78° East 177 204 3,300 -492 Descending Atlanta Center

Login

Don't have an account? Register now (free) for customized features, flight alerts, and more!